CPX223 Details

Departure: Seattle-Tacoma International Airport (KSEA)
Arrival: March Air Reserve Base (KRIV) at N/A
Route: SUMMA1 SUMMA JINMO Q7 JAGWA LANDO PMD MARCH4
Notes:


Current Weather Information
KSEA 231421Z 02006KT 1/4SM R16L/1400V2200FT FG VV001 08/07 A3048 RMK AO2 TWR VIS 10 T00780067 $
KRIV 231358Z AUTO 00000KT 8SM CLR 08/M03 A2996 RMK AO2 SLP138 T00751028